sensor_id;sensor_type;location;lat;lon;timestamp;pressure;altitude;pressure_sealevel;temperature;humidity
15674;BME280;7937;48.090;16.212;2024-03-08T00:00:37;98014.78;;;1.74;100.00
15674;BME280;7937;48.090;16.212;2024-03-08T00:03:39;98014.88;;;1.81;100.00
15674;BME280;7937;48.090;16.212;2024-03-08T00:06:42;98015.88;;;1.80;100.00
15674;BME280;7937;48.090;16.212;2024-03-08T00:09:45;98011.34;;;1.74;100.00
15674;BME280;7937;48.090;16.212;2024-03-08T00:12:47;98018.50;;;1.80;100.00
15674;BME280;7937;48.090;16.212;2024-03-08T00:15:50;98016.69;;;1.80;100.00
15674;BME280;7937;48.090;16.212;2024-03-08T00:18:52;98006.91;;;1.74;100.00
15674;BME280;7937;48.090;16.212;2024-03-08T00:21:54;98014.28;;;1.94;100.00
15674;BME280;7937;48.090;16.212;2024-03-08T00:24:57;98012.50;;;1.71;100.00
15674;BME280;7937;48.090;16.212;2024-03-08T00:27:59;98009.56;;;1.89;100.00
15674;BME280;7937;48.090;16.212;2024-03-08T00:31:01;98008.19;;;1.78;100.00
15674;BME280;7937;48.090;16.212;2024-03-08T00:34:03;98011.88;;;1.69;100.00
15674;BME280;7937;48.090;16.212;2024-03-08T00:37:06;98004.47;;;1.50;100.00
15674;BME280;7937;48.090;16.212;2024-03-08T00:40:08;98001.09;;;1.41;100.00
15674;BME280;7937;48.090;16.212;2024-03-08T00:43:13;97998.53;;;1.33;100.00
15674;BME280;7937;48.090;16.212;2024-03-08T00:46:16;97991.19;;;1.28;100.00
15674;BME280;7937;48.090;16.212;2024-03-08T00:49:18;98004.97;;;1.22;100.00
15674;BME280;7937;48.090;16.212;2024-03-08T00:52:20;98000.25;;;1.18;100.00
15674;BME280;7937;48.090;16.212;2024-03-08T00:55:22;97987.13;;;1.18;100.00
15674;BME280;7937;48.090;16.212;2024-03-08T00:58:24;97987.78;;;1.43;100.00
15674;BME280;7937;48.090;16.212;2024-03-08T01:01:26;97987.28;;;1.24;100.00
15674;BME280;7937;48.090;16.212;2024-03-08T01:04:28;97981.78;;;1.11;100.00
15674;BME280;7937;48.090;16.212;2024-03-08T01:07:31;97982.25;;;1.15;100.00
15674;BME280;7937;48.090;16.212;2024-03-08T01:10:33;97978.88;;;1.06;100.00
15674;BME280;7937;48.090;16.212;2024-03-08T01:13:35;97975.63;;;1.04;100.00
15674;BME280;7937;48.090;16.212;2024-03-08T01:16:38;97969.84;;;1.09;100.00
15674;BME280;7937;48.090;16.212;2024-03-08T01:19:40;97971.81;;;1.07;100.00
15674;BME280;7937;48.090;16.212;2024-03-08T01:22:42;97970.22;;;0.97;100.00
15674;BME280;7937;48.090;16.212;2024-03-08T01:25:44;97974.47;;;0.98;100.00
15674;BME280;7937;48.090;16.212;2024-03-08T01:28:46;97972.84;;;0.97;100.00
15674;BME280;7937;48.090;16.212;2024-03-08T01:31:48;97978.09;;;0.97;100.00
15674;BME280;7937;48.090;16.212;2024-03-08T01:34:50;97965.16;;;0.96;100.00
15674;BME280;7937;48.090;16.212;2024-03-08T01:37:53;97964.53;;;0.94;100.00
15674;BME280;7937;48.090;16.212;2024-03-08T01:40:55;97960.44;;;0.91;100.00
15674;BME280;7937;48.090;16.212;2024-03-08T01:43:59;97962.00;;;1.00;100.00
15674;BME280;7937;48.090;16.212;2024-03-08T01:47:02;97955.47;;;0.96;100.00
15674;BME280;7937;48.090;16.212;2024-03-08T01:50:04;97964.06;;;0.90;100.00
15674;BME280;7937;48.090;16.212;2024-03-08T01:53:09;97966.84;;;0.89;100.00
15674;BME280;7937;48.090;16.212;2024-03-08T01:56:15;97959.28;;;0.94;100.00
15674;BME280;7937;48.090;16.212;2024-03-08T01:59:17;97959.81;;;0.89;100.00
15674;BME280;7937;48.090;16.212;2024-03-08T02:02:20;97963.75;;;0.85;100.00
15674;BME280;7937;48.090;16.212;2024-03-08T02:05:23;97962.44;;;0.89;100.00
15674;BME280;7937;48.090;16.212;2024-03-08T02:08:25;97954.38;;;0.91;100.00
15674;BME280;7937;48.090;16.212;2024-03-08T02:11:28;97957.19;;;0.89;100.00
15674;BME280;7937;48.090;16.212;2024-03-08T02:17:52;97952.09;;;0.88;100.00
15674;BME280;7937;48.090;16.212;2024-03-08T02:20:57;97955.06;;;0.85;100.00
15674;BME280;7937;48.090;16.212;2024-03-08T02:24:00;97956.75;;;0.77;100.00
15674;BME280;7937;48.090;16.212;2024-03-08T02:27:03;97946.63;;;0.74;100.00
15674;BME280;7937;48.090;16.212;2024-03-08T02:30:06;97952.81;;;0.73;100.00
15674;BME280;7937;48.090;16.212;2024-03-08T02:33:09;97951.69;;;0.76;100.00
15674;BME280;7937;48.090;16.212;2024-03-08T02:36:11;97956.09;;;0.75;100.00
15674;BME280;7937;48.090;16.212;2024-03-08T02:39:14;97952.06;;;0.65;100.00
15674;BME280;7937;48.090;16.212;2024-03-08T02:42:16;97946.47;;;0.68;100.00
15674;BME280;7937;48.090;16.212;2024-03-08T02:45:19;97944.34;;;0.63;100.00
15674;BME280;7937;48.090;16.212;2024-03-08T02:48:22;97946.00;;;0.64;100.00
15674;BME280;7937;48.090;16.212;2024-03-08T02:51:25;97946.47;;;0.68;100.00
15674;BME280;7937;48.090;16.212;2024-03-08T02:54:28;97929.63;;;0.62;100.00
15674;BME280;7937;48.090;16.212;2024-03-08T02:57:30;97949.75;;;0.70;100.00
15674;BME280;7937;48.090;16.212;2024-03-08T03:00:32;97934.53;;;0.65;100.00
15674;BME280;7937;48.090;16.212;2024-03-08T03:03:34;97946.63;;;0.74;100.00
15674;BME280;7937;48.090;16.212;2024-03-08T03:06:36;97930.41;;;0.71;100.00
15674;BME280;7937;48.090;16.212;2024-03-08T03:09:39;97937.09;;;0.73;100.00
15674;BME280;7937;48.090;16.212;2024-03-08T03:12:41;97938.09;;;0.72;100.00
15674;BME280;7937;48.090;16.212;2024-03-08T03:15:43;97939.38;;;0.76;100.00
15674;BME280;7937;48.090;16.212;2024-03-08T03:18:46;97936.56;;;0.78;100.00
15674;BME280;7937;48.090;16.212;2024-03-08T03:21:48;97935.94;;;0.76;100.00
15674;BME280;7937;48.090;16.212;2024-03-08T03:24:50;97934.03;;;0.70;100.00
15674;BME280;7937;48.090;16.212;2024-03-08T03:27:53;97932.84;;;0.72;100.00
15674;BME280;7937;48.090;16.212;2024-03-08T03:30:59;97930.06;;;0.74;100.00
15674;BME280;7937;48.090;16.212;2024-03-08T03:34:01;97934.47;;;0.73;100.00
15674;BME280;7937;48.090;16.212;2024-03-08T03:37:06;97929.88;;;0.75;100.00
15674;BME280;7937;48.090;16.212;2024-03-08T03:40:14;97928.25;;;0.74;100.00
15674;BME280;7937;48.090;16.212;2024-03-08T03:43:16;97929.53;;;0.78;100.00
15674;BME280;7937;48.090;16.212;2024-03-08T03:46:18;97930.81;;;0.83;100.00
15674;BME280;7937;48.090;16.212;2024-03-08T03:49:20;97927.84;;;0.86;100.00
15674;BME280;7937;48.090;16.212;2024-03-08T03:52:23;97922.44;;;0.87;100.00
15674;BME280;7937;48.090;16.212;2024-03-08T03:55:25;97924.13;;;0.80;100.00
15674;BME280;7937;48.090;16.212;2024-03-08T03:58:28;97904.00;;;0.72;100.00
15674;BME280;7937;48.090;16.212;2024-03-08T04:01:31;97920.78;;;0.86;100.00
15674;BME280;7937;48.090;16.212;2024-03-08T04:04:34;97923.94;;;0.82;100.00
15674;BME280;7937;48.090;16.212;2024-03-08T04:07:37;97922.66;;;0.77;100.00
15674;BME280;7937;48.090;16.212;2024-03-08T04:10:40;97921.66;;;0.78;100.00
15674;BME280;7937;48.090;16.212;2024-03-08T04:13:45;97925.28;;;0.77;100.00
15674;BME280;7937;48.090;16.212;2024-03-08T04:16:47;97921.31;;;0.82;100.00
15674;BME280;7937;48.090;16.212;2024-03-08T04:19:51;97920.31;;;0.83;100.00
15674;BME280;7937;48.090;16.212;2024-03-08T04:22:53;97917.06;;;0.81;100.00
15674;BME280;7937;48.090;16.212;2024-03-08T04:25:55;97911.16;;;0.78;100.00
15674;BME280;7937;48.090;16.212;2024-03-08T04:28:57;97916.06;;;0.82;100.00
15674;BME280;7937;48.090;16.212;2024-03-08T04:32:00;97914.75;;;0.86;100.00
15674;BME280;7937;48.090;16.212;2024-03-08T04:35:05;97905.88;;;0.87;100.00
15674;BME280;7937;48.090;16.212;2024-03-08T04:38:07;97896.28;;;0.79;100.00
15674;BME280;7937;48.090;16.212;2024-03-08T04:41:10;97924.81;;;0.97;100.00
15674;BME280;7937;48.090;16.212;2024-03-08T04:44:12;97900.34;;;0.82;100.00
15674;BME280;7937;48.090;16.212;2024-03-08T04:47:14;97925.81;;;0.96;100.00
15674;BME280;7937;48.090;16.212;2024-03-08T04:50:18;97924.19;;;0.95;100.00
15674;BME280;7937;48.090;16.212;2024-03-08T04:53:20;97857.97;;;0.47;100.00
15674;BME280;7937;48.090;16.212;2024-03-08T04:56:22;97904.97;;;0.80;100.00
15674;BME280;7937;48.090;16.212;2024-03-08T04:59:27;97919.56;;;0.97;100.00
15674;BME280;7937;48.090;16.212;2024-03-08T05:02:30;97902.78;;;0.83;100.00
15674;BME280;7937;48.090;16.212;2024-03-08T05:05:33;97743.78;;;-0.24;100.00
15674;BME280;7937;48.090;16.212;2024-03-08T05:08:35;97605.72;;;-1.16;100.00
15674;BME280;7937;48.090;16.212;2024-03-08T05:11:37;97797.28;;;0.04;100.00
15674;BME280;7937;48.090;16.212;2024-03-08T05:14:39;97815.25;;;0.38;100.00
15674;BME280;7937;48.090;16.212;2024-03-08T05:17:42;97924.34;;;0.93;100.00
15674;BME280;7937;48.090;16.212;2024-03-08T05:20:44;97890.38;;;0.77;100.00
15674;BME280;7937;48.090;16.212;2024-03-08T05:23:47;97918.75;;;0.73;100.00
15674;BME280;7937;48.090;16.212;2024-03-08T05:26:49;97711.34;;;-0.46;100.00
15674;BME280;7937;48.090;16.212;2024-03-08T05:29:52;97857.56;;;0.58;100.00
15674;BME280;7937;48.090;16.212;2024-03-08T05:32:54;97912.00;;;0.79;100.00
15674;BME280;7937;48.090;16.212;2024-03-08T05:35:56;97871.44;;;0.67;100.00
15674;BME280;7937;48.090;16.212;2024-03-08T05:38:58;97619.47;;;-0.83;100.00
15674;BME280;7937;48.090;16.212;2024-03-08T05:42:01;97925.88;;;1.11;100.00
15674;BME280;7937;48.090;16.212;2024-03-08T05:45:06;97651.75;;;-0.67;100.00
15674;BME280;7937;48.090;16.212;2024-03-08T05:48:09;97775.06;;;0.00;100.00
15674;BME280;7937;48.090;16.212;2024-03-08T05:51:11;97809.88;;;0.40;100.00
15674;BME280;7937;48.090;16.212;2024-03-08T05:54:14;97924.53;;;1.15;100.00
15674;BME280;7937;48.090;16.212;2024-03-08T05:57:20;97685.06;;;-0.30;100.00
15674;BME280;7937;48.090;16.212;2024-03-08T06:00:25;97676.91;;;-0.58;100.00
15674;BME280;7937;48.090;16.212;2024-03-08T06:03:28;97911.00;;;1.03;100.00
15674;BME280;7937;48.090;16.212;2024-03-08T06:06:30;97738.44;;;-0.08;100.00
15674;BME280;7937;48.090;16.212;2024-03-08T06:09:32;97645.91;;;-0.46;100.00
15674;BME280;7937;48.090;16.212;2024-03-08T06:12:34;97900.56;;;1.18;100.00
15674;BME280;7937;48.090;16.212;2024-03-08T06:15:41;97701.13;;;-0.10;100.00
15674;BME280;7937;48.090;16.212;2024-03-08T06:18:44;97800.19;;;0.40;100.00
15674;BME280;7937;48.090;16.212;2024-03-08T06:21:46;97768.91;;;0.16;100.00
15674;BME280;7937;48.090;16.212;2024-03-08T06:24:48;97911.50;;;1.21;100.00
15674;BME280;7937;48.090;16.212;2024-03-08T06:27:50;97886.06;;;1.07;100.00
15674;BME280;7937;48.090;16.212;2024-03-08T06:30:56;97666.75;;;-0.30;100.00
15674;BME280;7937;48.090;16.212;2024-03-08T06:33:58;97936.28;;;1.42;100.00
15674;BME280;7937;48.090;16.212;2024-03-08T06:37:01;97918.69;;;1.27;100.00
15674;BME280;7937;48.090;16.212;2024-03-08T06:40:06;97925.63;;;1.20;100.00
15674;BME280;7937;48.090;16.212;2024-03-08T06:43:10;97919.69;;;1.26;100.00
15674;BME280;7937;48.090;16.212;2024-03-08T06:46:16;97923.59;;;1.31;100.00
15674;BME280;7937;48.090;16.212;2024-03-08T06:49:18;97875.06;;;0.89;100.00
15674;BME280;7937;48.090;16.212;2024-03-08T06:52:21;97763.00;;;0.45;100.00
15674;BME280;7937;48.090;16.212;2024-03-08T06:55:24;97686.13;;;-0.16;100.00
15674;BME280;7937;48.090;16.212;2024-03-08T06:58:26;97684.31;;;-0.16;100.00
15674;BME280;7937;48.090;16.212;2024-03-08T07:01:29;97806.53;;;0.69;100.00
15674;BME280;7937;48.090;16.212;2024-03-08T07:04:34;97919.69;;;1.26;100.00
15674;BME280;7937;48.090;16.212;2024-03-08T07:07:39;97894.91;;;1.29;100.00
15674;BME280;7937;48.090;16.212;2024-03-08T07:10:43;97877.94;;;1.17;100.00
15674;BME280;7937;48.090;16.212;2024-03-08T07:13:47;97770.91;;;0.60;100.00
15674;BME280;7937;48.090;16.212;2024-03-08T07:16:49;97818.13;;;0.74;100.00
15674;BME280;7937;48.090;16.212;2024-03-08T07:19:53;97787.25;;;0.39;100.00
15674;BME280;7937;48.090;16.212;2024-03-08T07:22:59;97787.44;;;0.60;100.00
15674;BME280;7937;48.090;16.212;2024-03-08T07:26:01;97891.88;;;1.17;100.00
15674;BME280;7937;48.090;16.212;2024-03-08T07:29:03;97792.41;;;0.55;100.00
15674;BME280;7937;48.090;16.212;2024-03-08T07:32:06;97944.94;;;1.65;100.00
15674;BME280;7937;48.090;16.212;2024-03-08T07:35:22;97912.94;;;1.47;100.00
15674;BME280;7937;48.090;16.212;2024-03-08T07:38:25;97783.53;;;0.56;100.00
15674;BME280;7937;48.090;16.212;2024-03-08T07:41:27;97865.34;;;1.12;100.00
15674;BME280;7937;48.090;16.212;2024-03-08T07:44:31;97910.13;;;1.34;100.00
15674;BME280;7937;48.090;16.212;2024-03-08T07:47:34;97795.78;;;0.78;100.00
15674;BME280;7937;48.090;16.212;2024-03-08T07:50:39;97928.63;;;1.55;100.00
15674;BME280;7937;48.090;16.212;2024-03-08T07:53:42;97843.78;;;1.02;100.00
15674;BME280;7937;48.090;16.212;2024-03-08T07:56:45;97894.94;;;1.44;100.00
15674;BME280;7937;48.090;16.212;2024-03-08T07:59:47;97917.66;;;1.51;100.00
15674;BME280;7937;48.090;16.212;2024-03-08T08:02:50;97787.94;;;0.78;100.00
15674;BME280;7937;48.090;16.212;2024-03-08T08:05:52;97980.38;;;1.84;100.00
15674;BME280;7937;48.090;16.212;2024-03-08T08:08:57;97839.81;;;1.06;100.00
15674;BME280;7937;48.090;16.212;2024-03-08T08:12:00;97813.03;;;0.96;100.00
15674;BME280;7937;48.090;16.212;2024-03-08T08:15:05;97934.00;;;1.76;100.00
15674;BME280;7937;48.090;16.212;2024-03-08T08:18:07;97890.50;;;1.44;100.00
15674;BME280;7937;48.090;16.212;2024-03-08T08:21:12;97970.44;;;1.94;100.00
15674;BME280;7937;48.090;16.212;2024-03-08T08:24:14;97930.38;;;1.63;100.00
15674;BME280;7937;48.090;16.212;2024-03-08T08:27:16;97785.53;;;0.92;100.00
15674;BME280;7937;48.090;16.212;2024-03-08T08:30:19;97881.91;;;1.50;100.00
15674;BME280;7937;48.090;16.212;2024-03-08T08:33:21;97904.41;;;1.83;100.00
15674;BME280;7937;48.090;16.212;2024-03-08T08:36:23;97875.03;;;1.79;100.00
15674;BME280;7937;48.090;16.212;2024-03-08T08:39:25;97909.06;;;2.17;100.00
15674;BME280;7937;48.090;16.212;2024-03-08T08:42:27;97871.22;;;1.96;100.00
15674;BME280;7937;48.090;16.212;2024-03-08T08:45:31;97781.25;;;1.58;100.00
15674;BME280;7937;48.090;16.212;2024-03-08T08:48:33;97917.84;;;2.53;100.00
15674;BME280;7937;48.090;16.212;2024-03-08T08:51:35;97921.31;;;2.75;100.00
15674;BME280;7937;48.090;16.212;2024-03-08T08:54:37;97789.88;;;2.03;100.00
15674;BME280;7937;48.090;16.212;2024-03-08T08:57:43;97763.28;;;1.76;100.00
15674;BME280;7937;48.090;16.212;2024-03-08T09:00:46;97917.19;;;2.88;100.00
15674;BME280;7937;48.090;16.212;2024-03-08T09:03:49;97687.94;;;1.41;100.00
15674;BME280;7937;48.090;16.212;2024-03-08T09:06:52;97686.47;;;1.53;100.00
15674;BME280;7937;48.090;16.212;2024-03-08T09:09:54;97893.06;;;2.84;100.00
15674;BME280;7937;48.090;16.212;2024-03-08T09:13:00;97909.50;;;2.86;100.00
15674;BME280;7937;48.090;16.212;2024-03-08T09:16:06;97725.78;;;1.83;100.00
15674;BME280;7937;48.090;16.212;2024-03-08T09:19:08;97843.28;;;2.61;100.00
15674;BME280;7937;48.090;16.212;2024-03-08T09:22:13;97880.88;;;2.98;100.00
15674;BME280;7937;48.090;16.212;2024-03-08T09:25:15;97711.66;;;2.05;100.00
15674;BME280;7937;48.090;16.212;2024-03-08T09:28:18;97695.28;;;2.03;100.00
15674;BME280;7937;48.090;16.212;2024-03-08T09:31:22;97921.81;;;3.78;100.00
15674;BME280;7937;48.090;16.212;2024-03-08T09:34:24;97860.81;;;3.46;100.00
15674;BME280;7937;48.090;16.212;2024-03-08T09:37:37;97796.94;;;3.09;100.00
15674;BME280;7937;48.090;16.212;2024-03-08T09:40:43;97742.19;;;2.70;100.00
15674;BME280;7937;48.090;16.212;2024-03-08T09:43:46;97895.22;;;3.45;100.00
15674;BME280;7937;48.090;16.212;2024-03-08T09:46:49;97742.41;;;2.47;100.00
15674;BME280;7937;48.090;16.212;2024-03-08T09:49:55;97812.31;;;2.84;100.00
15674;BME280;7937;48.090;16.212;2024-03-08T09:52:58;97888.16;;;3.24;100.00
15674;BME280;7937;48.090;16.212;2024-03-08T09:56:00;97872.22;;;3.04;100.00
15674;BME280;7937;48.090;16.212;2024-03-08T09:59:06;97773.28;;;2.39;100.00
15674;BME280;7937;48.090;16.212;2024-03-08T10:02:15;97766.63;;;2.43;100.00
15674;BME280;7937;48.090;16.212;2024-03-08T10:05:18;97776.56;;;2.69;100.00
15674;BME280;7937;48.090;16.212;2024-03-08T10:08:20;97806.59;;;2.53;100.00
15674;BME280;7937;48.090;16.212;2024-03-08T10:11:24;97914.50;;;3.45;100.00
15674;BME280;7937;48.090;16.212;2024-03-08T10:14:27;97644.13;;;1.77;100.00
15674;BME280;7937;48.090;16.212;2024-03-08T10:17:29;97899.25;;;3.41;100.00
15674;BME280;7937;48.090;16.212;2024-03-08T10:20:34;97780.41;;;2.45;100.00
15674;BME280;7937;48.090;16.212;2024-03-08T10:23:37;97741.09;;;2.15;100.00
15674;BME280;7937;48.090;16.212;2024-03-08T10:26:40;97733.00;;;2.17;100.00
15674;BME280;7937;48.090;16.212;2024-03-08T10:29:42;97827.19;;;2.92;100.00
15674;BME280;7937;48.090;16.212;2024-03-08T10:32:46;97918.06;;;3.38;100.00
15674;BME280;7937;48.090;16.212;2024-03-08T10:35:49;97710.53;;;1.93;100.00
15674;BME280;7937;48.090;16.212;2024-03-08T10:38:51;97786.16;;;2.33;100.00
15674;BME280;7937;48.090;16.212;2024-03-08T10:42:02;97855.38;;;2.77;100.00
15674;BME280;7937;48.090;16.212;2024-03-08T10:45:18;97744.91;;;2.34;100.00
15674;BME280;7937;48.090;16.212;2024-03-08T10:48:31;97854.72;;;3.18;100.00
15674;BME280;7937;48.090;16.212;2024-03-08T10:51:40;97771.69;;;2.66;100.00
15674;BME280;7937;48.090;16.212;2024-03-08T10:54:45;97684.38;;;2.06;100.00
15674;BME280;7937;48.090;16.212;2024-03-08T10:57:49;97641.50;;;1.99;100.00
15674;BME280;7937;48.090;16.212;2024-03-08T11:00:56;97802.59;;;3.06;100.00
15674;BME280;7937;48.090;16.212;2024-03-08T11:03:59;97812.03;;;3.22;100.00
15674;BME280;7937;48.090;16.212;2024-03-08T11:07:02;97880.63;;;3.70;100.00
15674;BME280;7937;48.090;16.212;2024-03-08T11:10:22;97876.28;;;3.91;100.00
15674;BME280;7937;48.090;16.212;2024-03-08T11:13:42;97829.09;;;3.96;100.00
15674;BME280;7937;48.090;16.212;2024-03-08T11:16:47;97876.16;;;4.53;100.00
15674;BME280;7937;48.090;16.212;2024-03-08T11:19:50;97917.94;;;4.50;100.00
15674;BME280;7937;48.090;16.212;2024-03-08T11:22:59;97635.75;;;3.01;100.00
15674;BME280;7937;48.090;16.212;2024-03-08T11:26:03;97630.06;;;2.97;100.00
15674;BME280;7937;48.090;16.212;2024-03-08T11:32:30;97846.72;;;4.50;100.00
15674;BME280;7937;48.090;16.212;2024-03-08T11:35:34;97727.47;;;3.86;100.00
15674;BME280;7937;48.090;16.212;2024-03-08T11:38:44;97840.47;;;4.77;100.00
15674;BME280;7937;48.090;16.212;2024-03-08T11:41:46;97826.69;;;4.75;100.00
15674;BME280;7937;48.090;16.212;2024-03-08T11:44:50;97620.38;;;3.59;100.00
15674;BME280;7937;48.090;16.212;2024-03-08T11:47:55;97818.38;;;4.85;100.00
15674;BME280;7937;48.090;16.212;2024-03-08T11:51:00;97823.06;;;4.89;98.54
15674;BME280;7937;48.090;16.212;2024-03-08T11:54:03;97683.28;;;3.88;99.20
15674;BME280;7937;48.090;16.212;2024-03-08T11:57:08;97814.50;;;4.74;99.90
15674;BME280;7937;48.090;16.212;2024-03-08T12:00:16;97833.44;;;4.98;99.34
15674;BME280;7937;48.090;16.212;2024-03-08T12:03:27;97825.84;;;4.61;100.00
15674;BME280;7937;48.090;16.212;2024-03-08T12:06:37;97681.16;;;3.51;100.00
15674;BME280;7937;48.090;16.212;2024-03-08T12:09:42;97817.13;;;4.54;100.00
15674;BME280;7937;48.090;16.212;2024-03-08T12:12:52;97796.00;;;4.61;100.00
15674;BME280;7937;48.090;16.212;2024-03-08T12:16:03;97781.00;;;4.68;98.82
15674;BME280;7937;48.090;16.212;2024-03-08T12:19:07;97603.38;;;3.61;95.66
15674;BME280;7937;48.090;16.212;2024-03-08T12:22:15;97823.06;;;5.09;95.25
15674;BME280;7937;48.090;16.212;2024-03-08T12:25:17;97825.69;;;5.16;95.41
15674;BME280;7937;48.090;16.212;2024-03-08T12:28:20;97821.22;;;5.30;95.73
15674;BME280;7937;48.090;16.212;2024-03-08T12:31:24;97817.09;;;5.60;90.76
15674;BME280;7937;48.090;16.212;2024-03-08T12:34:27;97819.13;;;5.78;93.06
15674;BME280;7937;48.090;16.212;2024-03-08T12:37:31;97812.19;;;5.84;88.63
15674;BME280;7937;48.090;16.212;2024-03-08T12:40:34;97817.31;;;5.72;87.33
15674;BME280;7937;48.090;16.212;2024-03-08T12:43:36;97811.00;;;5.73;83.33
15674;BME280;7937;48.090;16.212;2024-03-08T12:46:38;97810.22;;;5.59;83.91
15674;BME280;7937;48.090;16.212;2024-03-08T12:49:42;97808.59;;;5.52;86.64
15674;BME280;7937;48.090;16.212;2024-03-08T12:52:44;97813.84;;;5.65;87.16
15674;BME280;7937;48.090;16.212;2024-03-08T12:55:46;97808.38;;;5.66;84.60
15674;BME280;7937;48.090;16.212;2024-03-08T12:58:48;97806.09;;;5.77;85.67
15674;BME280;7937;48.090;16.212;2024-03-08T13:01:51;97812.97;;;5.84;83.08
15674;BME280;7937;48.090;16.212;2024-03-08T13:04:55;97790.44;;;5.75;82.28
15674;BME280;7937;48.090;16.212;2024-03-08T13:07:59;97799.19;;;5.82;84.25
15674;BME280;7937;48.090;16.212;2024-03-08T13:11:01;97796.72;;;5.87;82.15
15674;BME280;7937;48.090;16.212;2024-03-08T13:14:05;97785.59;;;5.65;81.46
15674;BME280;7937;48.090;16.212;2024-03-08T13:17:07;97792.91;;;5.70;81.90
15674;BME280;7937;48.090;16.212;2024-03-08T13:20:13;97781.47;;;5.96;82.12
15674;BME280;7937;48.090;16.212;2024-03-08T13:23:31;97784.31;;;5.88;79.80
15674;BME280;7937;48.090;16.212;2024-03-08T13:26:33;97781.03;;;5.86;79.95
15674;BME280;7937;48.090;16.212;2024-03-08T13:29:35;97758.13;;;5.73;80.33
15674;BME280;7937;48.090;16.212;2024-03-08T13:32:40;97765.84;;;5.81;78.59
15674;BME280;7937;48.090;16.212;2024-03-08T13:35:45;97782.06;;;5.85;82.56
15674;BME280;7937;48.090;16.212;2024-03-08T13:38:52;97768.25;;;5.83;79.02
15674;BME280;7937;48.090;16.212;2024-03-08T13:41:55;97770.69;;;5.84;80.05
15674;BME280;7937;48.090;16.212;2024-03-08T13:44:57;97766.94;;;6.12;78.67
15674;BME280;7937;48.090;16.212;2024-03-08T13:47:59;97761.72;;;5.99;78.64
15674;BME280;7937;48.090;16.212;2024-03-08T13:51:01;97752.13;;;6.11;78.83
15674;BME280;7937;48.090;16.212;2024-03-08T13:54:04;97754.19;;;6.02;79.28
15674;BME280;7937;48.090;16.212;2024-03-08T13:57:08;97761.69;;;6.05;80.75
15674;BME280;7937;48.090;16.212;2024-03-08T14:00:12;97746.16;;;6.15;79.32
15674;BME280;7937;48.090;16.212;2024-03-08T14:03:14;97751.31;;;6.04;80.29
15674;BME280;7937;48.090;16.212;2024-03-08T14:06:16;97742.63;;;5.97;80.57
15674;BME280;7937;48.090;16.212;2024-03-08T14:09:23;97717.19;;;5.89;82.31
15674;BME280;7937;48.090;16.212;2024-03-08T14:12:26;97743.75;;;6.14;81.23
15674;BME280;7937;48.090;16.212;2024-03-08T14:15:31;97744.72;;;6.19;80.16
15674;BME280;7937;48.090;16.212;2024-03-08T14:18:33;97733.63;;;6.04;81.05
15674;BME280;7937;48.090;16.212;2024-03-08T14:21:36;97726.31;;;6.00;80.94
15674;BME280;7937;48.090;16.212;2024-03-08T14:24:41;97725.06;;;6.09;82.30
15674;BME280;7937;48.090;16.212;2024-03-08T14:27:44;97716.75;;;5.99;80.85
15674;BME280;7937;48.090;16.212;2024-03-08T14:30:47;97719.97;;;6.07;82.16
15674;BME280;7937;48.090;16.212;2024-03-08T14:33:49;97714.47;;;6.09;80.41
15674;BME280;7937;48.090;16.212;2024-03-08T14:36:51;97720.84;;;6.01;79.52
15674;BME280;7937;48.090;16.212;2024-03-08T14:39:54;97706.75;;;6.07;80.53
15674;BME280;7937;48.090;16.212;2024-03-08T14:42:56;97709.34;;;6.14;79.46
15674;BME280;7937;48.090;16.212;2024-03-08T14:45:59;97706.38;;;6.04;80.60
15674;BME280;7937;48.090;16.212;2024-03-08T14:49:01;97710.63;;;6.05;80.16
15674;BME280;7937;48.090;16.212;2024-03-08T14:52:03;97713.03;;;6.13;79.88
15674;BME280;7937;48.090;16.212;2024-03-08T14:55:21;97709.78;;;6.11;79.53
15674;BME280;7937;48.090;16.212;2024-03-08T14:58:24;97701.47;;;6.07;80.43
15674;BME280;7937;48.090;16.212;2024-03-08T15:01:27;97707.50;;;6.14;80.33
15674;BME280;7937;48.090;16.212;2024-03-08T15:04:31;97705.38;;;6.30;76.30
15674;BME280;7937;48.090;16.212;2024-03-08T15:07:38;97700.94;;;6.24;76.88
15674;BME280;7937;48.090;16.212;2024-03-08T15:10:45;97699.38;;;6.16;77.36
15674;BME280;7937;48.090;16.212;2024-03-08T15:13:48;97689.63;;;6.10;76.93
15674;BME280;7937;48.090;16.212;2024-03-08T15:16:53;97684.34;;;6.16;75.42
15674;BME280;7937;48.090;16.212;2024-03-08T15:19:55;97689.28;;;6.06;77.70
15674;BME280;7937;48.090;16.212;2024-03-08T15:22:58;97689.09;;;6.01;77.05
15674;BME280;7937;48.090;16.212;2024-03-08T15:26:01;97683.38;;;6.04;76.63
15674;BME280;7937;48.090;16.212;2024-03-08T15:29:05;97681.41;;;5.93;78.09
15674;BME280;7937;48.090;16.212;2024-03-08T15:32:07;97687.28;;;5.88;77.79
15674;BME280;7937;48.090;16.212;2024-03-08T15:35:12;97678.34;;;5.89;79.38
15674;BME280;7937;48.090;16.212;2024-03-08T15:38:15;97681.63;;;5.91;78.43
15674;BME280;7937;48.090;16.212;2024-03-08T15:41:17;97690.97;;;5.87;78.76
15674;BME280;7937;48.090;16.212;2024-03-08T15:44:20;97697.47;;;5.85;78.37
15674;BME280;7937;48.090;16.212;2024-03-08T15:47:22;97682.88;;;5.82;78.24
15674;BME280;7937;48.090;16.212;2024-03-08T15:50:24;97678.16;;;5.84;82.25
15674;BME280;7937;48.090;16.212;2024-03-08T15:53:26;97670.66;;;5.81;80.78
15674;BME280;7937;48.090;16.212;2024-03-08T15:56:29;97681.25;;;5.75;79.74
15674;BME280;7937;48.090;16.212;2024-03-08T15:59:31;97681.69;;;5.72;77.47
15674;BME280;7937;48.090;16.212;2024-03-08T16:02:41;97680.44;;;5.74;77.31
15674;BME280;7937;48.090;16.212;2024-03-08T16:05:47;97685.59;;;5.56;77.20
15674;BME280;7937;48.090;16.212;2024-03-08T16:08:53;97686.22;;;5.51;77.59
15674;BME280;7937;48.090;16.212;2024-03-08T16:11:57;97684.38;;;5.58;77.65
15674;BME280;7937;48.090;16.212;2024-03-08T16:15:00;97682.16;;;5.55;77.90
15674;BME280;7937;48.090;16.212;2024-03-08T16:18:02;97680.97;;;5.44;79.87
15674;BME280;7937;48.090;16.212;2024-03-08T16:21:07;97677.94;;;5.48;77.77